Time;durP1;ratioP1;P1;durP2;ratioP2;P2;SDS_P1;SDS_P2;PMS_P1;PMS_P2;Temp;Humidity;BMP_temperature;BMP_pressure;BME280_temperature;BME280_humidity;BME280_pressure;Samples;Min_cycle;Max_cycle;Signal;HPM_P1;HPM_P2
2023/06/11 00:04:03;;;;;;;4.53;4.23;;;21.40;33.40;;;;;;10467220;28;20227;-77
2023/06/11 00:09:07;;;;;;;4.70;4.40;;;21.40;33.80;;;;;;10460549;28;20224;-77
2023/06/11 00:14:11;;;;;;;4.60;4.30;;;21.40;33.60;;;;;;10460388;28;20247;-77
2023/06/11 00:19:17;;;;;;;4.53;4.13;;;21.30;33.50;;;;;;10460513;28;20315;-77
2023/06/11 00:24:20;;;;;;;4.40;4.10;;;21.30;33.90;;;;;;10452535;28;20233;-77
2023/06/11 00:29:23;;;;;;;4.77;4.47;;;21.20;33.60;;;;;;10458976;28;20902;-77
2023/06/11 00:34:28;;;;;;;4.97;4.63;;;21.20;33.60;;;;;;10464329;28;20229;-77
2023/06/11 00:39:31;;;;;;;4.10;3.80;;;21.10;34.00;;;;;;10468522;28;20228;-76
2023/06/11 00:44:34;;;;;;;4.63;4.23;;;21.00;33.50;;;;;;10468149;28;20221;-77
2023/06/11 00:49:39;;;;;;;4.77;4.47;;;20.90;33.70;;;;;;10458635;28;20228;-76
2023/06/11 00:54:43;;;;;;;4.77;4.37;;;20.80;34.10;;;;;;10470917;28;20297;-77
2023/06/11 00:59:47;;;;;;;4.37;4.07;;;20.70;33.90;;;;;;10462880;28;20288;-77
2023/06/11 01:04:56;;;;;;;5.17;4.77;;;20.70;34.10;;;;;;10462634;28;20240;-76
2023/06/11 01:10:00;;;;;;;5.10;4.70;;;20.70;34.80;;;;;;10471454;28;20315;-77
2023/06/11 01:15:04;;;;;;;4.30;4.00;;;20.60;34.10;;;;;;10461919;28;20247;-76
2023/06/11 01:20:13;;;;;;;4.70;4.40;;;20.50;34.10;;;;;;10464303;28;20327;-77
2023/06/11 01:25:23;;;;;;;5.10;4.70;;;20.50;35.10;;;;;;10463517;28;20844;-77
2023/06/11 01:30:30;;;;;;;5.50;5.00;;;20.50;34.80;;;;;;10462295;28;20602;-77
2023/06/11 01:35:34;;;;;;;4.67;4.37;;;20.40;34.90;;;;;;10461552;28;20275;-77
2023/06/11 01:40:37;;;;;;;4.93;4.57;;;20.40;34.50;;;;;;10468261;28;20212;-77
2023/06/11 01:45:43;;;;;;;4.70;4.30;;;20.30;34.60;;;;;;10460882;28;20231;-77
2023/06/11 01:50:46;;;;;;;4.83;4.43;;;20.20;35.00;;;;;;10454948;28;20228;-77
2023/06/11 01:55:50;;;;;;;4.80;4.40;;;20.20;34.70;;;;;;10470418;28;20220;-77
2023/06/11 02:00:54;;;;;;;4.30;4.07;;;20.20;35.00;;;;;;10457343;28;20226;-77
2023/06/11 02:05:57;;;;;;;5.03;4.63;;;20.20;35.30;;;;;;10459678;28;20792;-77
2023/06/11 02:11:02;;;;;;;4.47;4.17;;;20.10;34.90;;;;;;10455950;28;20225;-77
2023/06/11 02:16:07;;;;;;;4.20;3.90;;;20.10;35.00;;;;;;10462744;28;20653;-77
2023/06/11 02:21:10;;;;;;;5.50;5.03;;;20.00;35.40;;;;;;10460378;28;20232;-77
2023/06/11 02:26:13;;;;;;;5.23;4.83;;;20.00;35.40;;;;;;10460759;28;20235;-77
2023/06/11 02:31:18;;;;;;;4.90;4.60;;;20.00;35.40;;;;;;10452701;28;20311;-77
2023/06/11 02:36:22;;;;;;;5.00;4.60;;;19.90;35.30;;;;;;10456365;28;20235;-77
2023/06/11 02:41:26;;;;;;;4.37;4.07;;;19.80;34.80;;;;;;10452005;28;20716;-77
2023/06/11 02:46:31;;;;;;;4.27;4.03;;;19.80;34.90;;;;;;10459632;28;20225;-76
2023/06/11 02:51:34;;;;;;;4.87;4.50;;;19.70;35.30;;;;;;10465128;28;20229;-77
2023/06/11 02:56:37;;;;;;;5.33;4.93;;;19.60;35.30;;;;;;10461847;28;20220;-77
2023/06/11 03:01:42;;;;;;;4.50;4.20;;;19.50;35.60;;;;;;10466550;28;20220;-76
2023/06/11 03:06:45;;;;;;;5.70;5.30;;;19.50;36.10;;;;;;10469845;28;20616;-76
2023/06/11 03:11:48;;;;;;;5.43;5.03;;;19.50;36.10;;;;;;10472010;28;20291;-76
2023/06/11 03:16:53;;;;;;;4.40;4.10;;;19.40;36.00;;;;;;10465898;28;20259;-76
2023/06/11 03:21:56;;;;;;;4.47;4.17;;;19.40;36.00;;;;;;10470189;28;20894;-77
2023/06/11 03:26:59;;;;;;;4.20;3.90;;;19.40;36.00;;;;;;10471660;28;20312;-77
2023/06/11 03:32:04;;;;;;;5.10;4.73;;;19.40;36.00;;;;;;10468249;28;20274;-77
2023/06/11 03:37:07;;;;;;;5.60;5.10;;;19.40;36.00;;;;;;10460999;28;21030;-76
2023/06/11 03:42:11;;;;;;;5.77;5.00;;;19.40;36.00;;;;;;10466007;28;20605;-76
2023/06/11 03:47:15;;;;;;;5.20;4.80;;;19.30;35.90;;;;;;10465625;28;20503;-76
2023/06/11 03:52:19;;;;;;;5.43;5.03;;;19.30;35.90;;;;;;10467936;28;20320;-76
2023/06/11 03:57:22;;;;;;;4.40;4.10;;;19.30;35.90;;;;;;10464287;28;21005;-76
2023/06/11 04:02:27;;;;;;;4.90;4.60;;;19.30;35.90;;;;;;10462492;28;20254;-76
2023/06/11 04:07:31;;;;;;;5.10;4.70;;;19.20;36.30;;;;;;10465177;28;20223;-77
2023/06/11 04:12:34;;;;;;;5.97;5.57;;;19.20;36.00;;;;;;10466863;28;20231;-77
2023/06/11 04:17:39;;;;;;;6.43;5.93;;;19.10;36.30;;;;;;10462913;28;20308;-76
2023/06/11 04:22:42;;;;;;;6.00;5.50;;;19.10;37.10;;;;;;10467693;28;20228;-77
2023/06/11 04:27:47;;;;;;;6.10;5.70;;;19.20;37.00;;;;;;10463700;28;20228;-77
2023/06/11 04:32:54;;;;;;;6.10;5.60;;;19.10;37.60;;;;;;10472904;28;20296;-77
2023/06/11 04:37:58;;;;;;;5.67;5.27;;;19.20;37.70;;;;;;10468004;28;20653;-76
2023/06/11 04:43:03;;;;;;;5.33;4.93;;;19.10;37.20;;;;;;10469631;28;20707;-76
2023/06/11 04:48:09;;;;;;;5.80;5.40;;;19.20;37.50;;;;;;10459001;28;20794;-77
2023/06/11 04:53:12;;;;;;;5.93;5.43;;;19.20;38.20;;;;;;10455624;28;20235;-76
2023/06/11 04:58:16;;;;;;;6.37;5.77;;;19.20;37.70;;;;;;10466834;28;20228;-76
2023/06/11 05:03:21;;;;;;;6.27;5.77;;;19.30;38.10;;;;;;10459823;28;20269;-76
2023/06/11 05:08:28;;;;;;;6.50;6.10;;;19.30;39.00;;;;;;10463536;28;20751;-76
2023/06/11 05:13:31;;;;;;;6.57;6.07;;;19.40;38.90;;;;;;10465798;28;20226;-76
2023/06/11 05:18:36;;;;;;;6.60;6.10;;;19.50;38.90;;;;;;10462691;28;20222;-76
2023/06/11 05:23:39;;;;;;;6.93;6.33;;;19.60;39.60;;;;;;10461885;28;20260;-76
2023/06/11 05:28:43;;;;;;;6.47;5.90;;;19.60;39.10;;;;;;10465220;28;20221;-77
2023/06/11 05:33:47;;;;;;;6.50;6.00;;;19.80;39.30;;;;;;10459761;28;20236;-76
2023/06/11 05:38:51;;;;;;;6.80;6.30;;;19.90;39.90;;;;;;10458700;28;20248;-76
2023/06/11 05:43:54;;;;;;;6.47;5.97;;;20.00;39.40;;;;;;10463971;28;20252;-76
2023/06/11 05:48:59;;;;;;;6.43;6.03;;;20.10;39.60;;;;;;10457316;28;20228;-76
2023/06/11 05:54:03;;;;;;;6.87;6.27;;;20.30;40.10;;;;;;10456599;28;20235;-76
2023/06/11 05:59:06;;;;;;;6.47;5.97;;;20.40;39.60;;;;;;10459471;28;20224;-76
2023/06/11 06:04:10;;;;;;;6.90;6.30;;;20.60;40.40;;;;;;10460922;28;20228;-77
2023/06/11 06:09:14;;;;;;;5.80;5.40;;;20.70;40.00;;;;;;10463638;28;20282;-76
2023/06/11 06:14:17;;;;;;;5.63;5.23;;;20.90;39.00;;;;;;10461244;28;20224;-77
2023/06/11 06:19:22;;;;;;;6.10;5.57;;;21.10;39.10;;;;;;10462943;28;20228;-76
2023/06/11 06:24:25;;;;;;;6.23;5.83;;;21.30;38.80;;;;;;10465883;28;20607;-76
2023/06/11 06:29:28;;;;;;;6.40;5.90;;;21.60;38.70;;;;;;10462563;28;20223;-77
2023/06/11 06:34:33;;;;;;;5.60;5.17;;;21.80;38.30;;;;;;10459490;28;20244;-76
2023/06/11 06:39:36;;;;;;;6.07;5.50;;;22.00;38.30;;;;;;10468523;28;20223;-77
2023/06/11 06:44:39;;;;;;;6.10;5.53;;;22.20;38.40;;;;;;10461766;28;20303;-77
2023/06/11 06:49:44;;;;;;;6.50;6.00;;;22.40;38.60;;;;;;10452153;28;20228;-77
2023/06/11 06:54:48;;;;;;;6.70;6.10;;;22.60;38.30;;;;;;10462849;28;20649;-71
2023/06/11 06:59:51;;;;;;;6.23;5.73;;;22.80;38.00;;;;;;10455782;28;20244;-71
2023/06/11 07:04:55;;;;;;;5.70;5.30;;;23.00;37.90;;;;;;10456304;28;20232;-71
2023/06/11 07:09:58;;;;;;;6.03;5.23;;;23.20;37.30;;;;;;10453046;28;20541;-71
2023/06/11 07:15:02;;;;;;;5.40;5.00;;;23.40;36.80;;;;;;10454757;28;20331;-71
2023/06/11 07:20:08;;;;;;;5.30;4.80;;;23.60;36.60;;;;;;10454852;28;20225;-71
2023/06/11 07:25:12;;;;;;;5.47;5.07;;;23.70;35.40;;;;;;10454514;28;20608;-71
2023/06/11 07:30:15;;;;;;;5.50;5.10;;;23.90;35.80;;;;;;10457003;28;20221;-71
2023/06/11 07:35:20;;;;;;;5.27;4.87;;;24.10;35.50;;;;;;10455278;28;20324;-72
2023/06/11 07:40:23;;;;;;;5.50;5.10;;;24.30;35.00;;;;;;10465231;28;20224;-72
2023/06/11 07:45:26;;;;;;;4.93;4.50;;;24.50;34.80;;;;;;10460553;28;20728;-71
2023/06/11 07:50:30;;;;;;;4.90;4.40;;;24.60;34.50;;;;;;10459664;28;20789;-72
2023/06/11 07:55:34;;;;;;;4.70;4.40;;;24.80;33.30;;;;;;10461504;28;20224;-72
2023/06/11 08:00:37;;;;;;;4.80;4.40;;;25.00;33.40;;;;;;10458907;28;20246;-72
2023/06/11 08:05:41;;;;;;;5.07;4.43;;;25.20;33.10;;;;;;10454395;28;20233;-72
2023/06/11 08:10:50;;;;;;;4.47;4.17;;;25.30;32.30;;;;;;10461885;28;20490;-71
2023/06/11 08:15:53;;;;;;;4.03;3.73;;;25.50;32.80;;;;;;10463544;28;20255;-72
2023/06/11 08:20:58;;;;;;;3.70;3.40;;;25.70;32.30;;;;;;10460588;28;20220;-71
2023/06/11 08:26:02;;;;;;;3.43;3.23;;;25.90;30.70;;;;;;10459409;28;20216;-71
2023/06/11 08:31:06;;;;;;;3.63;3.33;;;26.10;30.90;;;;;;10460176;28;20228;-71
2023/06/11 08:36:10;;;;;;;3.17;2.93;;;26.20;30.30;;;;;;10454427;28;20312;-71
2023/06/11 08:41:14;;;;;;;3.80;3.50;;;26.30;29.40;;;;;;10459399;28;20452;-71
2023/06/11 08:46:23;;;;;;;3.67;3.30;;;26.50;29.50;;;;;;10455222;28;20717;-71
2023/06/11 08:51:35;;;;;;;3.50;3.30;;;26.70;28.20;;;;;;10457716;28;20235;-73
2023/06/11 08:56:38;;;;;;;3.83;3.53;;;26.80;28.10;;;;;;10455194;28;20612;-72
2023/06/11 09:01:42;;;;;;;3.37;3.17;;;26.90;28.90;;;;;;10455521;28;20228;-71
2023/06/11 09:06:51;;;;;;;3.50;3.30;;;27.00;28.60;;;;;;10460204;28;20221;-71
2023/06/11 09:11:54;;;;;;;3.53;3.23;;;27.20;27.20;;;;;;10456406;28;20229;-70
2023/06/11 09:16:58;;;;;;;4.17;3.80;;;27.30;28.30;;;;;;10458900;28;20225;-71
2023/06/11 09:22:03;;;;;;;3.90;3.70;;;27.50;28.00;;;;;;10444388;28;20316;-72
2023/06/11 09:27:08;;;;;;;3.73;3.53;;;27.60;27.40;;;;;;10445037;28;20711;-71
2023/06/11 09:32:11;;;;;;;4.30;4.00;;;27.70;27.70;;;;;;10444083;28;20572;-71
2023/06/11 09:37:42;;;;;;;3.70;3.40;;;27.80;27.40;;;;;;10460400;28;20428;-71
2023/06/11 09:42:46;;;;;;;6.40;3.73;;;27.90;25.90;;;;;;10456842;28;20704;-73
2023/06/11 09:47:51;;;;;;;3.97;3.70;;;28.10;26.90;;;;;;10449682;28;20225;-72
2023/06/11 09:52:59;;;;;;;4.37;4.07;;;28.20;27.00;;;;;;10459611;28;20224;-72
2023/06/11 09:58:02;;;;;;;4.03;3.63;;;28.20;25.90;;;;;;10451418;28;20219;-70
2023/06/11 10:03:06;;;;;;;4.27;3.97;;;28.40;26.40;;;;;;10456850;28;20228;-71
2023/06/11 10:08:15;;;;;;;4.23;3.93;;;28.50;26.30;;;;;;10456669;28;20224;-70
2023/06/11 10:13:28;;;;;;;4.40;4.00;;;28.50;24.80;;;;;;10449940;28;20642;-71
2023/06/11 10:18:31;;;;;;;3.70;3.50;;;28.60;24.00;;;;;;10451594;28;20236;-71
2023/06/11 10:23:37;;;;;;;3.97;3.67;;;28.60;25.40;;;;;;10457119;28;20229;-73
2023/06/11 10:28:44;;;;;;;3.67;3.47;;;28.70;24.60;;;;;;10450710;28;20258;-72
2023/06/11 10:33:47;;;;;;;4.00;3.70;;;28.80;24.60;;;;;;10452259;28;20224;-70
2023/06/11 10:38:52;;;;;;;3.93;3.63;;;29.00;24.60;;;;;;10460140;28;20224;-71
2023/06/11 10:43:57;;;;;;;3.93;3.73;;;29.10;23.90;;;;;;10447749;28;20248;-71
2023/06/11 10:49:01;;;;;;;3.97;3.60;;;29.10;24.10;;;;;;10451574;28;20216;-70
2023/06/11 10:54:07;;;;;;;4.00;3.80;;;29.10;24.80;;;;;;10458113;28;20312;-70
2023/06/11 10:59:10;;;;;;;3.93;3.73;;;29.20;23.10;;;;;;10461898;28;20235;-69
2023/06/11 11:04:13;;;;;;;4.03;3.73;;;29.20;23.80;;;;;;10452990;28;20720;-70
2023/06/11 11:09:23;;;;;;;4.13;3.73;;;29.20;23.30;;;;;;10465406;28;20220;-71
2023/06/11 11:14:27;;;;;;;4.30;3.90;;;29.20;22.10;;;;;;10466243;28;20234;-71
2023/06/11 11:19:31;;;;;;;4.00;3.70;;;29.20;23.30;;;;;;10467658;28;20259;-74
2023/06/11 11:24:36;;;;;;;3.93;3.70;;;29.20;23.20;;;;;;10463388;28;20427;-74
2023/06/11 11:29:42;;;;;;;3.87;3.57;;;29.30;22.40;;;;;;10465067;28;20612;-74
2023/06/11 11:34:46;;;;;;;3.97;3.70;;;29.30;22.80;;;;;;10467992;28;20778;-74
2023/06/11 11:39:53;;;;;;;3.30;3.10;;;29.30;22.80;;;;;;10470597;28;20236;-74
2023/06/11 11:44:56;;;;;;;3.80;3.60;;;29.40;21.70;;;;;;10466976;28;20254;-75
2023/06/11 11:49:59;;;;;;;3.80;3.60;;;29.40;22.30;;;;;;10464184;28;20220;-75
2023/06/11 11:55:05;;;;;;;3.70;3.50;;;29.50;22.30;;;;;;10464566;28;20216;-74
2023/06/11 12:00:10;;;;;;;3.90;3.70;;;29.50;21.40;;;;;;10471897;28;20226;-74
2023/06/11 12:05:14;;;;;;;4.00;3.70;;;29.60;21.40;;;;;;10466821;28;20233;-74
2023/06/11 12:10:18;;;;;;;3.80;3.57;;;29.50;20.90;;;;;;10467404;28;20221;-74
2023/06/11 12:15:21;;;;;;;3.63;3.43;;;29.50;20.90;;;;;;10467940;28;20236;-74
2023/06/11 12:20:25;;;;;;;3.60;3.30;;;29.50;21.00;;;;;;10459929;28;20224;-71
2023/06/11 12:25:30;;;;;;;3.93;3.73;;;29.50;20.90;;;;;;10468458;28;20228;-71
2023/06/11 12:30:34;;;;;;;3.93;3.63;;;29.50;20.90;;;;;;10471312;28;20220;-71
2023/06/11 12:35:38;;;;;;;3.70;3.50;;;29.40;20.80;;;;;;10472095;28;20278;-71
2023/06/11 12:40:42;;;;;;;3.80;3.50;;;29.40;20.80;;;;;;10467014;28;20335;-71
2023/06/11 12:45:46;;;;;;;4.03;3.83;;;29.40;20.50;;;;;;10472684;28;20319;-71
2023/06/11 12:50:49;;;;;;;3.83;3.53;;;29.40;20.20;;;;;;10464824;28;20743;-71
2023/06/11 12:55:53;;;;;;;3.47;3.23;;;29.40;20.00;;;;;;10465437;28;20307;-71
2023/06/11 13:00:57;;;;;;;3.47;3.20;;;29.50;19.70;;;;;;10460338;28;20227;-73
2023/06/11 13:06:00;;;;;;;3.70;3.40;;;29.50;20.00;;;;;;10464732;28;20231;-73
2023/06/11 13:11:04;;;;;;;3.60;3.30;;;29.60;19.70;;;;;;10459105;28;20234;-71
2023/06/11 13:16:08;;;;;;;3.40;3.20;;;29.70;19.00;;;;;;10449800;28;20221;-72
2023/06/11 13:21:11;;;;;;;3.60;3.40;;;29.70;19.60;;;;;;10448963;28;20252;-72
2023/06/11 13:26:16;;;;;;;3.30;3.10;;;29.80;19.50;;;;;;10453980;28;20235;-72
2023/06/11 13:31:19;;;;;;;3.63;3.07;;;29.90;18.60;;;;;;10450080;28;20605;-71
2023/06/11 13:36:22;;;;;;;3.40;3.20;;;29.90;18.80;;;;;;10447994;28;20236;-72
2023/06/11 13:41:27;;;;;;;3.50;3.20;;;30.00;18.90;;;;;;10454477;28;20242;-72
2023/06/11 13:46:31;;;;;;;3.33;3.13;;;30.10;18.50;;;;;;10452556;28;20231;-73
2023/06/11 13:51:34;;;;;;;3.37;3.07;;;30.10;18.50;;;;;;10450271;28;20308;-72
2023/06/11 13:56:40;;;;;;;3.30;3.10;;;30.20;18.60;;;;;;10453466;28;20220;-71
2023/06/11 14:01:43;;;;;;;3.40;3.20;;;30.20;17.80;;;;;;10460820;28;20303;-73
2023/06/11 14:06:46;;;;;;;3.10;2.90;;;30.20;17.90;;;;;;10460907;28;20229;-72
2023/06/11 14:11:51;;;;;;;4.33;3.10;;;30.20;17.80;;;;;;10460916;28;20598;-71
2023/06/11 14:16:55;;;;;;;2.83;2.63;;;30.20;17.30;;;;;;10465154;28;20267;-71
2023/06/11 14:21:59;;;;;;;3.07;2.87;;;30.20;17.70;;;;;;10453352;28;20225;-71
2023/06/11 14:27:03;;;;;;;3.07;2.90;;;30.30;17.50;;;;;;10460127;28;20307;-72
2023/06/11 14:32:07;;;;;;;3.17;2.97;;;30.40;16.90;;;;;;10460863;28;20231;-72
2023/06/11 14:37:11;;;;;;;3.43;3.20;;;30.40;17.00;;;;;;10457580;28;20228;-72
2023/06/11 14:42:16;;;;;;;3.33;3.10;;;30.40;17.00;;;;;;10457765;28;20790;-72
2023/06/11 14:47:19;;;;;;;3.67;3.37;;;30.40;16.60;;;;;;10468462;28;20238;-72
2023/06/11 14:52:22;;;;;;;3.40;3.20;;;30.40;17.10;;;;;;10467476;28;20237;-72
2023/06/11 14:57:27;;;;;;;3.63;3.33;;;30.50;16.90;;;;;;10469386;28;20225;-72
2023/06/11 15:02:34;;;;;;;3.27;3.07;;;30.50;16.40;;;;;;10473318;28;20232;-77
2023/06/11 15:07:37;;;;;;;3.47;3.27;;;30.40;16.80;;;;;;10470353;28;20221;-77
2023/06/11 15:12:42;;;;;;;3.57;3.30;;;30.40;16.70;;;;;;10471841;28;20248;-77
2023/06/11 15:17:45;;;;;;;3.50;3.30;;;30.30;16.40;;;;;;10469110;28;20308;-77
2023/06/11 15:22:48;;;;;;;3.30;3.10;;;30.30;16.90;;;;;;10469901;28;20319;-77
2023/06/11 15:27:53;;;;;;;3.77;3.47;;;30.40;16.80;;;;;;10472391;28;21034;-77
2023/06/11 15:32:56;;;;;;;3.17;2.97;;;30.40;16.20;;;;;;10469427;28;20316;-77
2023/06/11 15:38:01;;;;;;;3.27;3.00;;;30.40;16.20;;;;;;10461572;28;20379;-77
2023/06/11 15:43:06;;;;;;;3.10;2.90;;;30.30;16.00;;;;;;10450182;28;20225;-78
2023/06/11 15:48:09;;;;;;;2.93;2.80;;;30.30;15.50;;;;;;10462186;28;20217;-72
2023/06/11 15:53:12;;;;;;;3.17;2.93;;;30.30;15.90;;;;;;10462698;28;20236;-73
2023/06/11 15:58:17;;;;;;;3.43;3.23;;;30.30;15.80;;;;;;10459297;28;20228;-72
2023/06/11 16:03:20;;;;;;;3.80;3.50;;;30.40;15.20;;;;;;10459123;28;20234;-72
2023/06/11 16:08:23;;;;;;;3.17;2.97;;;30.40;15.50;;;;;;10460897;28;20238;-72
2023/06/11 16:13:28;;;;;;;3.40;3.20;;;30.40;14.80;;;;;;10455867;28;20246;-72
2023/06/11 16:18:31;;;;;;;3.60;3.40;;;30.30;14.10;;;;;;10457985;28;20221;-72
2023/06/11 16:23:36;;;;;;;3.50;3.30;;;30.30;14.70;;;;;;10453786;28;20243;-72
2023/06/11 16:28:40;;;;;;;3.17;2.90;;;30.20;14.60;;;;;;10457844;28;20224;-72
2023/06/11 16:33:43;;;;;;;3.33;3.13;;;30.30;14.50;;;;;;10456349;28;20236;-72
2023/06/11 16:39:01;;;;;;;3.30;3.10;;;30.20;14.70;;;;;;10455956;28;20224;-72
2023/06/11 16:44:25;;;;;;;3.37;3.17;;;30.20;14.80;;;;;;10470601;28;20227;-72
2023/06/11 16:49:28;;;;;;;3.13;2.93;;;30.20;14.50;;;;;;10464036;28;20217;-72
2023/06/11 16:54:31;;;;;;;3.83;3.50;;;30.20;14.70;;;;;;10465840;28;20938;-72
2023/06/11 16:59:36;;;;;;;3.10;2.90;;;30.20;14.60;;;;;;10459267;28;20320;-72
2023/06/11 17:04:39;;;;;;;3.47;3.27;;;30.10;14.30;;;;;;10476403;28;20224;-72
2023/06/11 17:09:43;;;;;;;3.40;3.20;;;30.10;14.60;;;;;;10449023;28;20224;-72
2023/06/11 17:14:48;;;;;;;3.00;2.80;;;30.10;14.60;;;;;;10454136;28;21121;-72
2023/06/11 17:19:54;;;;;;;3.00;2.80;;;30.10;14.40;;;;;;10466047;28;20220;-72
2023/06/11 17:24:57;;;;;;;3.47;3.20;;;30.10;14.90;;;;;;10470897;28;20721;-72
2023/06/11 17:30:02;;;;;;;3.50;3.20;;;30.20;14.90;;;;;;10466457;28;20219;-72
2023/06/11 17:35:06;;;;;;;3.20;3.00;;;30.10;14.60;;;;;;10436172;28;20308;-72
2023/06/11 17:40:11;;;;;;;3.23;3.03;;;30.10;14.70;;;;;;10456012;28;20217;-72
2023/06/11 17:45:20;;;;;;;3.10;2.90;;;30.00;14.70;;;;;;10459204;28;20307;-72
2023/06/11 17:50:24;;;;;;;3.33;3.07;;;29.80;14.70;;;;;;10453598;28;20227;-72
2023/06/11 17:55:27;;;;;;;3.10;2.90;;;29.70;15.00;;;;;;10468729;28;20253;-72
2023/06/11 18:00:32;;;;;;;3.37;3.07;;;29.70;15.00;;;;;;10468562;28;20256;-72
2023/06/11 18:05:35;;;;;;;2.93;2.73;;;29.70;15.00;;;;;;10455526;28;20308;-72
2023/06/11 18:10:38;;;;;;;3.03;2.83;;;29.70;15.20;;;;;;10465852;28;20362;-72
2023/06/11 18:15:43;;;;;;;3.30;3.00;;;29.70;15.40;;;;;;10459902;28;20239;-72
2023/06/11 18:20:46;;;;;;;3.10;2.90;;;29.60;15.40;;;;;;10458254;28;20227;-72
2023/06/11 18:25:50;;;;;;;3.50;3.30;;;29.60;15.50;;;;;;10442989;28;20232;-72
2023/06/11 18:30:55;;;;;;;3.60;3.40;;;29.50;15.50;;;;;;10465189;28;20707;-72
2023/06/11 18:35:58;;;;;;;3.33;3.00;;;29.50;15.70;;;;;;10468987;28;20234;-72
2023/06/11 18:41:01;;;;;;;3.83;3.07;;;29.40;15.60;;;;;;10469448;28;20336;-72
2023/06/11 18:46:06;;;;;;;4.10;2.90;;;29.30;15.70;;;;;;10452702;28;20246;-72
2023/06/11 18:51:09;;;;;;;3.20;3.00;;;29.30;15.80;;;;;;10461473;28;20225;-72
2023/06/11 18:56:13;;;;;;;3.03;2.83;;;29.20;15.90;;;;;;10464134;28;20278;-71
2023/06/11 19:01:17;;;;;;;3.30;3.10;;;29.20;16.00;;;;;;10462571;28;20620;-73
2023/06/11 19:06:21;;;;;;;3.30;3.10;;;29.10;16.30;;;;;;10469876;28;20711;-72
2023/06/11 19:11:24;;;;;;;3.90;3.60;;;29.00;16.00;;;;;;10459001;28;20278;-74
2023/06/11 19:16:29;;;;;;;3.50;3.30;;;28.80;16.10;;;;;;10459782;28;20644;-73
2023/06/11 19:21:32;;;;;;;3.67;3.40;;;28.70;16.20;;;;;;10463682;28;20228;-72
2023/06/11 19:26:37;;;;;;;3.77;3.23;;;28.60;16.40;;;;;;10463726;28;20307;-72
2023/06/11 19:31:41;;;;;;;3.60;3.20;;;28.40;16.60;;;;;;10470244;28;20684;-72
2023/06/11 19:36:45;;;;;;;3.87;3.50;;;28.30;16.70;;;;;;10464150;28;20236;-72
2023/06/11 19:41:48;;;;;;;3.30;3.10;;;28.10;16.70;;;;;;10468723;28;20225;-72
2023/06/11 19:46:53;;;;;;;3.57;3.30;;;27.90;16.90;;;;;;10467897;28;20781;-72
2023/06/11 19:51:56;;;;;;;3.60;3.30;;;27.80;17.20;;;;;;10473570;28;20252;-72
2023/06/11 19:56:59;;;;;;;3.40;3.20;;;27.60;17.20;;;;;;10479446;28;20716;-72
2023/06/11 20:02:04;;;;;;;3.80;3.50;;;27.50;17.20;;;;;;10481008;28;20263;-71
2023/06/11 20:07:08;;;;;;;3.83;3.57;;;27.30;17.40;;;;;;10470741;28;20234;-71
2023/06/11 20:12:11;;;;;;;3.80;3.50;;;27.10;17.50;;;;;;10452310;28;20238;-70
2023/06/11 20:17:15;;;;;;;3.60;3.30;;;27.00;17.60;;;;;;10459255;28;20888;-69
2023/06/11 20:22:19;;;;;;;3.93;3.60;;;26.90;17.90;;;;;;10465705;28;20315;-70
2023/06/11 20:27:22;;;;;;;3.80;3.60;;;26.80;18.00;;;;;;10459039;28;20594;-70
2023/06/11 20:32:26;;;;;;;3.90;3.60;;;26.70;18.10;;;;;;10457090;28;20228;-70
2023/06/11 20:37:30;;;;;;;3.67;3.47;;;26.50;18.30;;;;;;10463073;28;20262;-70
2023/06/11 20:42:33;;;;;;;3.83;3.50;;;26.40;18.30;;;;;;10463130;28;20663;-69
2023/06/11 20:47:38;;;;;;;3.83;3.50;;;26.40;18.50;;;;;;10471514;28;20913;-69
2023/06/11 20:52:41;;;;;;;4.43;3.30;;;26.30;18.70;;;;;;10473827;28;20232;-70
2023/06/11 20:57:44;;;;;;;3.70;3.47;;;26.20;18.80;;;;;;10474390;28;20227;-70
2023/06/11 21:02:49;;;;;;;3.80;3.60;;;26.10;19.10;;;;;;10468763;28;20301;-69
2023/06/11 21:07:52;;;;;;;3.73;3.53;;;26.10;19.10;;;;;;10466208;28;20855;-69
2023/06/11 21:12:56;;;;;;;3.77;3.47;;;26.00;19.00;;;;;;10460098;28;20586;-69
2023/06/11 21:18:00;;;;;;;3.77;3.53;;;25.90;19.00;;;;;;10463011;28;21732;-70
2023/06/11 21:23:03;;;;;;;3.80;3.60;;;25.80;19.30;;;;;;10465191;28;20224;-70
2023/06/11 21:28:07;;;;;;;4.07;3.77;;;25.60;19.20;;;;;;10468910;28;20221;-69
2023/06/11 21:33:11;;;;;;;3.60;3.30;;;25.50;19.50;;;;;;10462969;28;20314;-69
2023/06/11 21:38:14;;;;;;;3.80;3.50;;;25.40;19.80;;;;;;10462174;28;20697;-69
2023/06/11 21:43:21;;;;;;;4.40;4.10;;;25.20;19.80;;;;;;10460404;28;20233;-69
2023/06/11 21:48:27;;;;;;;3.90;3.60;;;25.10;20.10;;;;;;10454465;28;20224;-69
2023/06/11 21:53:30;;;;;;;3.70;3.50;;;24.90;20.40;;;;;;10465873;28;20226;-69
2023/06/11 21:58:33;;;;;;;3.67;3.33;;;24.80;20.40;;;;;;10461751;28;20224;-69
2023/06/11 22:03:38;;;;;;;3.97;3.77;;;24.70;20.50;;;;;;10463552;28;20230;-69
2023/06/11 22:08:42;;;;;;;4.30;4.00;;;24.60;20.90;;;;;;10457610;28;20236;-69
2023/06/11 22:13:46;;;;;;;3.90;3.60;;;24.50;20.90;;;;;;10462844;28;20252;-69
2023/06/11 22:18:52;;;;;;;4.13;3.83;;;24.50;21.10;;;;;;10452785;28;20236;-74
2023/06/11 22:23:55;;;;;;;4.67;4.00;;;24.40;21.40;;;;;;10462969;28;20246;-74
2023/06/11 22:28:59;;;;;;;4.80;3.77;;;24.30;21.30;;;;;;10455822;28;20269;-73
2023/06/11 22:34:03;;;;;;;4.30;4.00;;;24.30;21.40;;;;;;10449303;28;20248;-74
2023/06/11 22:39:08;;;;;;;4.10;3.80;;;24.20;21.80;;;;;;10457257;28;20224;-73
2023/06/11 22:44:11;;;;;;;4.33;4.03;;;24.10;21.60;;;;;;10453662;28;20239;-73
2023/06/11 22:49:16;;;;;;;3.77;3.47;;;24.10;21.70;;;;;;10452133;28;20227;-73
2023/06/11 22:54:19;;;;;;;4.70;4.00;;;24.10;22.10;;;;;;10454915;28;20224;-74
2023/06/11 22:59:22;;;;;;;4.37;4.07;;;24.00;22.00;;;;;;10456175;28;20298;-73
2023/06/11 23:04:28;;;;;;;4.47;4.13;;;24.00;22.10;;;;;;10450636;28;20250;-73
2023/06/11 23:09:31;;;;;;;4.30;4.00;;;23.90;22.40;;;;;;10459281;28;20217;-74
2023/06/11 23:14:34;;;;;;;4.30;4.00;;;23.80;22.30;;;;;;10456048;28;20224;-73
2023/06/11 23:19:40;;;;;;;4.43;4.13;;;23.80;22.40;;;;;;10467792;28;20231;-73
2023/06/11 23:24:44;;;;;;;4.67;4.27;;;23.70;22.80;;;;;;10459336;28;20224;-73
2023/06/11 23:29:48;;;;;;;3.90;3.70;;;23.70;22.80;;;;;;10455950;28;20221;-74
2023/06/11 23:34:54;;;;;;;4.50;4.17;;;23.60;22.70;;;;;;10461813;28;21154;-74
2023/06/11 23:39:57;;;;;;;4.47;4.17;;;23.50;23.30;;;;;;10460066;28;20239;-73
2023/06/11 23:45:00;;;;;;;4.20;3.90;;;23.50;23.10;;;;;;10462139;28;20252;-73
2023/06/11 23:50:06;;;;;;;4.57;4.27;;;23.30;23.10;;;;;;10461951;28;20274;-73
2023/06/11 23:55:10;;;;;;;5.60;4.20;;;23.20;23.70;;;;;;10458483;28;20227;-73
